Time;durP1;ratioP1;P1;durP2;ratioP2;P2;SDS_P1;SDS_P2;PMS_P1;PMS_P2;Temp;Humidity;BMP_temperature;BMP_pressure;BME280_temperature;BME280_humidity;BME280_pressure;Samples;Min_cycle;Max_cycle;Signal;HPM_P1;HPM_P2
2023/01/18 00:00:39;;;;;;;20.85;7.85;;;-1.70;99.90;;;;;;5072717;28;20052;-74
2023/01/18 00:03:07;;;;;;;21.02;7.60;;;-1.80;99.90;;;;;;5074802;28;20051;-74
2023/01/18 00:05:42;;;;;;;21.58;8.60;;;-1.70;99.90;;;;;;5023986;28;20056;-74
2023/01/18 00:08:09;;;;;;;18.65;7.25;;;-1.80;99.90;;;;;;5074330;28;20488;-74
2023/01/18 00:10:35;;;;;;;19.70;8.25;;;-1.70;99.90;;;;;;5072731;28;20098;-75
2023/01/18 00:13:02;;;;;;;22.88;8.25;;;-1.70;99.90;;;;;;5073591;28;20044;-74
2023/01/18 00:15:27;;;;;;;19.57;7.40;;;-1.70;99.90;;;;;;5072686;28;20052;-74
2023/01/18 00:17:53;;;;;;;19.50;7.85;;;-1.80;99.90;;;;;;5058084;28;20053;-76
2023/01/18 00:20:24;;;;;;;22.20;8.02;;;-1.80;99.90;;;;;;5069446;28;20049;-74
2023/01/18 00:22:51;;;;;;;16.85;7.05;;;-1.80;99.90;;;;;;5036847;28;20057;-73
2023/01/18 00:25:19;;;;;;;21.92;8.18;;;-1.80;99.90;;;;;;5053270;28;20139;-74
2023/01/18 00:27:50;;;;;;;20.23;8.40;;;-1.80;99.90;;;;;;5088889;28;20114;-74
2023/01/18 00:30:17;;;;;;;20.83;8.32;;;-1.80;99.90;;;;;;5074274;28;20435;-74
2023/01/18 00:32:44;;;;;;;20.63;8.63;;;-1.90;99.90;;;;;;5073445;28;20053;-75
2023/01/18 00:35:10;;;;;;;18.85;8.40;;;-1.80;99.90;;;;;;5073226;28;20044;-74
2023/01/18 00:37:36;;;;;;;20.60;8.52;;;-1.80;99.90;;;;;;5072323;28;20048;-75
2023/01/18 00:40:04;;;;;;;21.75;8.75;;;-1.90;99.90;;;;;;5074399;28;20071;-75
2023/01/18 00:45:15;;;;;;;24.65;8.63;;;-2.00;99.90;;;;;;5073998;28;20106;-75
2023/01/18 00:47:41;;;;;;;21.75;8.65;;;-2.00;99.90;;;;;;5073440;28;20083;-73
2023/01/18 00:50:07;;;;;;;21.23;8.52;;;-2.00;99.90;;;;;;5072649;28;20048;-74
2023/01/18 00:52:33;;;;;;;20.65;9.50;;;-2.00;99.90;;;;;;5072274;28;20048;-74
2023/01/18 00:55:04;;;;;;;20.63;8.35;;;-2.00;99.90;;;;;;5055885;28;20053;-74
2023/01/18 00:57:30;;;;;;;23.85;9.00;;;-2.10;99.90;;;;;;5072375;28;20070;-73
2023/01/18 00:59:55;;;;;;;21.67;9.43;;;-2.00;99.90;;;;;;5072481;28;20044;-73
2023/01/18 01:02:21;;;;;;;24.02;9.82;;;-2.00;99.90;;;;;;5073230;28;20131;-75
2023/01/18 01:07:31;;;;;;;23.33;9.70;;;-2.10;99.90;;;;;;5070853;28;20418;-74
2023/01/18 01:09:57;;;;;;;21.52;9.25;;;-2.20;99.90;;;;;;5072424;28;20147;-74
2023/01/18 01:26:10;;;;;;;22.17;9.82;;;-2.10;99.90;;;;;;5072176;28;20052;-74
2023/01/18 01:28:40;;;;;;;21.60;8.95;;;-2.10;99.90;;;;;;5070771;28;20044;-74
2023/01/18 01:31:08;;;;;;;29.65;9.55;;;-2.10;99.90;;;;;;5073002;28;20117;-74
2023/01/18 01:33:35;;;;;;;28.67;10.32;;;-2.20;99.90;;;;;;5071226;28;20048;-75
2023/01/18 01:36:05;;;;;;;22.50;9.80;;;-2.10;99.90;;;;;;5055374;28;20132;-74
2023/01/18 01:38:31;;;;;;;24.73;11.00;;;-2.20;99.90;;;;;;5071122;28;20145;-75
2023/01/18 01:41:00;;;;;;;24.73;10.75;;;-2.10;99.90;;;;;;5070614;28;20090;-73
2023/01/18 01:43:40;;;;;;;27.35;10.60;;;-2.10;99.90;;;;;;5052788;28;20409;-73
2023/01/18 01:46:23;;;;;;;26.80;10.25;;;-2.20;99.90;;;;;;5067972;28;20509;-74
2023/01/18 01:48:55;;;;;;;23.25;9.77;;;-2.10;99.90;;;;;;5067857;28;20102;-73
2023/01/18 01:51:21;;;;;;;25.23;10.50;;;-2.20;99.90;;;;;;5034687;28;20045;-73
2023/01/18 01:53:48;;;;;;;29.38;11.23;;;-2.10;99.90;;;;;;5052190;28;20405;-73
2023/01/18 01:56:14;;;;;;;26.73;10.23;;;-2.00;99.90;;;;;;5068335;28;20049;-73
2023/01/18 01:58:49;;;;;;;26.73;10.77;;;-2.00;99.90;;;;;;5066894;28;20117;-73
2023/01/18 02:01:15;;;;;;;27.05;11.05;;;-2.10;99.90;;;;;;5054706;28;20086;-73
2023/01/18 02:03:41;;;;;;;29.70;10.60;;;-2.10;99.90;;;;;;5038043;28;20055;-74
2023/01/18 02:06:30;;;;;;;29.63;11.55;;;-2.20;99.90;;;;;;5105183;28;20057;-74
2023/01/18 02:08:58;;;;;;;25.70;11.15;;;-2.20;99.90;;;;;;5071244;28;20438;-74
2023/01/18 02:11:24;;;;;;;25.08;9.70;;;-2.20;99.90;;;;;;5054521;28;20396;-73
2023/01/18 02:13:50;;;;;;;25.70;10.65;;;-2.30;99.90;;;;;;5054210;28;20066;-73
2023/01/18 02:16:29;;;;;;;25.08;10.40;;;-2.40;99.90;;;;;;5086711;28;20067;-73
2023/01/18 02:19:03;;;;;;;26.15;10.00;;;-2.40;99.90;;;;;;5070901;28;20053;-73
2023/01/18 02:21:40;;;;;;;28.13;10.82;;;-2.50;99.90;;;;;;5072359;28;20071;-74
2023/01/18 02:24:16;;;;;;;29.20;10.38;;;-2.50;99.90;;;;;;5071461;28;20138;-74
2023/01/18 02:26:57;;;;;;;26.60;10.57;;;-2.50;99.90;;;;;;5071996;28;20045;-74
2023/01/18 02:29:28;;;;;;;28.17;10.05;;;-2.60;99.90;;;;;;5105051;28;20040;-74
2023/01/18 02:32:14;;;;;;;28.38;10.18;;;-2.60;99.90;;;;;;5104209;28;20135;-73
2023/01/18 02:34:54;;;;;;;27.02;10.52;;;-2.60;99.90;;;;;;5084099;28;20045;-74
2023/01/18 02:37:28;;;;;;;28.75;11.02;;;-2.70;99.90;;;;;;5051078;28;20060;-74
2023/01/18 02:40:13;;;;;;;29.67;10.35;;;-2.60;99.90;;;;;;5034214;28;20048;-73
2023/01/18 02:48:17;;;;;;;27.40;10.15;;;-2.70;99.90;;;;;;5085774;28;20052;-79
2023/01/18 02:50:43;;;;;;;21.42;8.93;;;-2.70;99.90;;;;;;5053752;28;20045;-80
2023/01/18 02:53:16;;;;;;;22.58;9.65;;;-2.70;99.90;;;;;;5052962;28;20106;-80
2023/01/18 02:55:58;;;;;;;23.75;10.07;;;-2.70;99.90;;;;;;5052362;28;20099;-79
2023/01/18 02:58:33;;;;;;;24.40;9.45;;;-2.60;99.90;;;;;;5052012;28;20045;-80
2023/01/18 03:01:08;;;;;;;25.27;9.57;;;-2.60;99.90;;;;;;5052079;28;20085;-80
2023/01/18 03:03:35;;;;;;;26.65;10.30;;;-2.60;99.90;;;;;;5055554;28;20049;-80
2023/01/18 03:06:05;;;;;;;29.10;11.02;;;-2.50;99.90;;;;;;5057054;28;20456;-80
2023/01/18 03:08:40;;;;;;;30.42;11.18;;;-2.50;99.90;;;;;;5056884;28;20426;-79
2023/01/18 03:11:20;;;;;;;23.38;9.50;;;-2.50;99.90;;;;;;5056742;28;20106;-79
2023/01/18 03:13:51;;;;;;;21.90;9.40;;;-2.50;99.90;;;;;;5056198;28;20080;-80
2023/01/18 03:16:26;;;;;;;24.65;10.07;;;-2.50;99.90;;;;;;5040015;28;20109;-81
2023/01/18 03:19:05;;;;;;;25.13;9.68;;;-2.50;99.90;;;;;;5055710;28;20140;-79
2023/01/18 03:21:46;;;;;;;24.40;9.55;;;-2.50;99.90;;;;;;5056807;28;20061;-81
2023/01/18 03:24:15;;;;;;;22.42;9.60;;;-2.50;99.90;;;;;;5056863;28;20091;-80
2023/01/18 03:26:49;;;;;;;27.38;9.93;;;-2.40;99.90;;;;;;5056009;28;20045;-80
2023/01/18 03:35:07;;;;;;;24.67;9.98;;;-2.40;99.90;;;;;;5089348;28;20059;-79
2023/01/18 03:37:37;;;;;;;24.17;9.77;;;-2.50;99.90;;;;;;5055291;28;20052;-80
2023/01/18 03:40:07;;;;;;;25.52;9.95;;;-2.50;99.90;;;;;;5088818;28;20080;-80
2023/01/18 03:42:42;;;;;;;27.33;9.75;;;-2.50;99.90;;;;;;5089897;28;20072;-80
2023/01/18 03:45:42;;;;;;;25.75;10.07;;;-2.50;99.90;;;;;;5057256;28;20399;-79
2023/01/18 03:48:09;;;;;;;25.80;9.90;;;-2.50;99.90;;;;;;5056272;28;20084;-80
2023/01/18 03:50:59;;;;;;;22.13;9.38;;;-2.50;99.90;;;;;;5089050;28;20048;-79
2023/01/18 03:53:40;;;;;;;30.55;9.80;;;-2.50;99.90;;;;;;5089497;28;20418;-81
2023/01/18 03:56:35;;;;;;;21.83;8.65;;;-2.50;99.90;;;;;;5055636;28;20067;-80
2023/01/18 03:59:04;;;;;;;26.92;10.27;;;-2.50;99.90;;;;;;5054551;28;20048;-79
2023/01/18 04:01:30;;;;;;;25.17;9.63;;;-2.50;99.90;;;;;;5054625;28;20049;-79
2023/01/18 04:03:56;;;;;;;22.67;9.88;;;-2.40;99.90;;;;;;5022883;28;20057;-81
2023/01/18 04:06:22;;;;;;;27.67;11.20;;;-2.40;99.90;;;;;;5021984;28;20504;-79
2023/01/18 04:08:51;;;;;;;27.73;10.40;;;-2.40;99.90;;;;;;5056200;28;20091;-78
2023/01/18 04:11:18;;;;;;;26.73;11.02;;;-2.30;99.90;;;;;;5056401;28;20127;-80
2023/01/18 04:13:44;;;;;;;24.65;10.13;;;-2.30;99.90;;;;;;5055189;28;20049;-80
2023/01/18 04:16:09;;;;;;;25.83;10.30;;;-2.40;99.90;;;;;;5055943;28;20090;-80
2023/01/18 04:18:35;;;;;;;26.58;10.63;;;-2.40;99.90;;;;;;5038126;28;20389;-79
2023/01/18 04:21:01;;;;;;;28.88;10.65;;;-2.50;99.90;;;;;;5054023;28;20053;-79
2023/01/18 04:23:27;;;;;;;27.60;11.25;;;-2.40;99.90;;;;;;5054622;28;20515;-81
2023/01/18 04:25:53;;;;;;;26.77;10.50;;;-2.50;99.90;;;;;;5038013;28;20488;-79
2023/01/18 04:28:24;;;;;;;28.90;10.48;;;-2.40;99.90;;;;;;5055862;28;20556;-79
2023/01/18 04:30:54;;;;;;;28.33;11.25;;;-2.30;99.90;;;;;;5055515;28;20045;-79
2023/01/18 04:33:21;;;;;;;28.63;10.98;;;-2.30;99.90;;;;;;5038278;28;20091;-81
2023/01/18 04:35:47;;;;;;;24.50;9.57;;;-2.30;99.90;;;;;;5055614;28;20409;-80
2023/01/18 04:38:14;;;;;;;25.15;9.90;;;-2.30;99.90;;;;;;5037660;28;20044;-80
2023/01/18 04:40:40;;;;;;;29.90;11.68;;;-2.30;99.90;;;;;;5055591;28;20055;-81
2023/01/18 04:43:05;;;;;;;29.27;10.85;;;-2.30;99.90;;;;;;5054858;28;20044;-80
2023/01/18 04:45:31;;;;;;;28.42;10.63;;;-2.30;99.90;;;;;;5087680;28;20045;-81
2023/01/18 04:47:57;;;;;;;26.95;10.82;;;-2.30;99.90;;;;;;5055470;28;20485;-80
2023/01/18 04:50:23;;;;;;;24.02;10.52;;;-2.30;99.90;;;;;;5054153;28;20409;-81
2023/01/18 04:52:48;;;;;;;30.75;10.93;;;-2.40;99.90;;;;;;5070339;28;20056;-79
2023/01/18 04:55:14;;;;;;;31.38;11.25;;;-2.40;99.90;;;;;;5055835;28;20098;-81
2023/01/18 04:57:44;;;;;;;31.08;10.77;;;-2.40;99.90;;;;;;5037913;28;20580;-80
2023/01/18 05:00:11;;;;;;;27.85;10.82;;;-2.50;99.90;;;;;;5055044;28;20473;-80
2023/01/18 05:02:37;;;;;;;;;;;-2.40;99.90;;;;;;5054302;28;20052;-79
2023/01/18 05:05:04;;;;;;;25.20;10.25;;;-2.40;99.90;;;;;;5054645;28;20011;-79
2023/01/18 05:07:32;;;;;;;26.73;10.15;;;-2.40;99.90;;;;;;5037505;28;20091;-79
2023/01/18 05:09:59;;;;;;;25.02;11.30;;;-2.40;99.90;;;;;;5053979;28;20049;-79
2023/01/18 05:12:25;;;;;;;29.02;11.32;;;-2.40;99.90;;;;;;5054542;28;20088;-79
2023/01/18 05:14:51;;;;;;;26.52;11.70;;;-2.40;99.90;;;;;;5053321;28;20056;-80
2023/01/18 05:17:17;;;;;;;27.50;11.25;;;-2.40;99.90;;;;;;5020398;28;20072;-80
2023/01/18 05:19:42;;;;;;;30.02;11.73;;;-2.40;99.90;;;;;;5054443;28;20123;-81
2023/01/18 05:22:08;;;;;;;29.27;11.70;;;-2.40;99.90;;;;;;5053673;28;20063;-79
2023/01/18 05:24:35;;;;;;;27.00;10.52;;;-2.50;99.90;;;;;;5069377;28;20103;-79
2023/01/18 05:27:01;;;;;;;33.65;11.73;;;-2.50;99.90;;;;;;5054254;28;20049;-79
2023/01/18 05:29:26;;;;;;;27.13;11.68;;;-2.30;99.90;;;;;;5086978;28;20041;-80
2023/01/18 05:31:52;;;;;;;32.28;11.40;;;-2.30;99.90;;;;;;5020337;28;20049;-80
2023/01/18 05:34:18;;;;;;;32.80;10.85;;;-2.30;99.90;;;;;;5020718;28;20131;-80
2023/01/18 05:36:45;;;;;;;31.08;11.50;;;-2.30;99.90;;;;;;5054015;28;20425;-78
2023/01/18 05:39:11;;;;;;;31.27;10.48;;;-2.30;99.90;;;;;;5054425;28;20107;-79
2023/01/18 05:41:36;;;;;;;26.92;10.63;;;-2.30;99.90;;;;;;5069437;28;20049;-77
2023/01/18 05:44:03;;;;;;;34.17;12.18;;;-2.30;99.90;;;;;;5053933;28;20439;-79
2023/01/18 05:46:28;;;;;;;25.55;11.27;;;-2.30;99.90;;;;;;5054009;28;20045;-79
2023/01/18 05:48:58;;;;;;;25.80;10.32;;;-2.30;99.90;;;;;;5069730;28;20484;-80
2023/01/18 05:51:24;;;;;;;31.70;11.30;;;-2.30;99.90;;;;;;5037057;28;20135;-79
2023/01/18 05:53:50;;;;;;;27.92;10.77;;;-2.30;99.90;;;;;;5036622;28;20560;-80
2023/01/18 05:56:16;;;;;;;28.15;11.60;;;-2.30;99.90;;;;;;5052894;28;20130;-80
2023/01/18 05:58:42;;;;;;;27.13;11.23;;;-2.30;99.90;;;;;;5053782;28;20045;-80
2023/01/18 06:01:07;;;;;;;35.40;12.00;;;-2.30;99.90;;;;;;5053260;28;20045;-78
2023/01/18 06:03:33;;;;;;;34.47;12.50;;;-2.30;99.90;;;;;;5070762;28;20041;-79
2023/01/18 06:06:02;;;;;;;34.38;11.90;;;-2.30;99.90;;;;;;5052743;28;20051;-78
2023/01/18 06:08:28;;;;;;;23.73;10.32;;;-2.20;99.90;;;;;;5035706;28;20393;-78
2023/01/18 06:10:58;;;;;;;29.05;12.13;;;-2.20;99.90;;;;;;5037079;28;20056;-77
2023/01/18 06:13:27;;;;;;;27.23;11.32;;;-2.30;99.90;;;;;;5086600;28;20056;-77
2023/01/18 06:15:53;;;;;;;30.23;11.75;;;-2.30;99.90;;;;;;5053586;28;20132;-78
2023/01/18 06:18:20;;;;;;;29.52;11.70;;;-2.20;99.90;;;;;;5053338;28;20041;-78
2023/01/18 06:20:46;;;;;;;25.17;11.82;;;-2.30;99.90;;;;;;5051894;28;20045;-77
2023/01/18 06:23:11;;;;;;;28.75;11.25;;;-2.20;99.90;;;;;;5052485;28;20051;-77
2023/01/18 06:25:37;;;;;;;32.40;12.80;;;-2.20;99.90;;;;;;5036411;28;20049;-78
2023/01/18 06:28:04;;;;;;;26.75;10.75;;;-2.20;99.90;;;;;;5052266;28;20053;-77
2023/01/18 06:30:30;;;;;;;28.05;10.68;;;-2.20;99.90;;;;;;5052313;28;20511;-77
2023/01/18 06:32:56;;;;;;;31.23;11.10;;;-2.20;99.90;;;;;;5020155;28;20055;-78
2023/01/18 06:35:22;;;;;;;26.70;11.00;;;-2.30;99.90;;;;;;5052342;28;20104;-77
2023/01/18 06:37:47;;;;;;;28.77;11.25;;;-2.20;99.90;;;;;;5056428;28;20045;-78
2023/01/18 06:40:14;;;;;;;31.35;11.05;;;-2.20;99.90;;;;;;5056247;28;20045;-77
2023/01/18 06:42:40;;;;;;;28.53;11.13;;;-2.30;99.90;;;;;;5059505;28;20052;-79
2023/01/18 06:45:06;;;;;;;25.23;10.43;;;-2.30;99.90;;;;;;5065093;28;20068;-79
2023/01/18 06:47:32;;;;;;;28.75;10.82;;;-2.30;99.90;;;;;;5062469;28;20183;-79
2023/01/18 06:49:58;;;;;;;27.80;10.10;;;-2.30;99.90;;;;;;5029790;28;20516;-79
2023/01/18 06:52:23;;;;;;;26.20;10.75;;;-2.40;99.90;;;;;;5061482;28;20055;-79
2023/01/18 06:54:49;;;;;;;30.92;11.00;;;-2.40;99.90;;;;;;5062480;28;20107;-79
2023/01/18 06:57:15;;;;;;;30.33;10.35;;;-2.30;99.90;;;;;;5045374;28;20045;-79
2023/01/18 06:59:40;;;;;;;28.10;11.75;;;-2.30;99.90;;;;;;5094814;28;20178;-79
2023/01/18 07:02:09;;;;;;;27.73;11.02;;;-2.30;99.90;;;;;;5057846;28;20049;-80
2023/01/18 07:04:41;;;;;;;33.53;11.40;;;-2.40;99.90;;;;;;5061438;28;20101;-79
2023/01/18 07:07:07;;;;;;;26.75;10.32;;;-2.30;99.90;;;;;;5064783;28;20478;-78
2023/01/18 07:09:33;;;;;;;26.02;10.20;;;-2.30;99.90;;;;;;5065690;28;20045;-78
2023/01/18 07:11:59;;;;;;;26.23;10.73;;;-2.30;99.90;;;;;;5047114;28;20060;-79
2023/01/18 07:14:24;;;;;;;34.30;11.90;;;-2.30;99.90;;;;;;5061951;28;20073;-78
2023/01/18 07:16:50;;;;;;;32.42;11.23;;;-2.40;99.90;;;;;;5062984;28;20056;-79
2023/01/18 07:19:16;;;;;;;31.65;11.73;;;-2.30;99.90;;;;;;5060357;28;20075;-80
2023/01/18 07:21:42;;;;;;;30.17;11.20;;;-2.30;99.90;;;;;;5057729;28;20516;-79
2023/01/18 07:24:08;;;;;;;30.80;11.80;;;-2.40;99.90;;;;;;5057824;28;20069;-79
2023/01/18 07:26:33;;;;;;;29.33;11.18;;;-2.30;99.90;;;;;;5056488;28;20051;-80
2023/01/18 07:28:59;;;;;;;35.97;11.27;;;-2.30;99.90;;;;;;5056062;28;20094;-79
2023/01/18 07:31:25;;;;;;;31.05;11.90;;;-2.30;99.90;;;;;;5055681;28;20132;-78
2023/01/18 07:33:51;;;;;;;33.70;12.30;;;-2.40;99.90;;;;;;5056508;28;20049;-80
2023/01/18 07:36:16;;;;;;;30.45;12.07;;;-2.40;99.90;;;;;;5057164;28;20468;-80
2023/01/18 07:38:43;;;;;;;27.77;12.23;;;-2.40;99.90;;;;;;5056742;28;20102;-80
2023/01/18 07:41:14;;;;;;;32.43;12.37;;;-2.40;99.90;;;;;;5055721;28;20045;-79
2023/01/18 07:43:41;;;;;;;35.58;12.90;;;-2.40;99.90;;;;;;5056118;28;20126;-79
2023/01/18 07:46:10;;;;;;;37.10;14.60;;;-2.40;99.90;;;;;;5056374;28;20118;-79
2023/01/18 07:48:35;;;;;;;29.95;12.90;;;-2.40;99.90;;;;;;5039313;28;20153;-80
2023/01/18 07:51:04;;;;;;;34.97;13.27;;;-2.50;99.90;;;;;;5055528;28;20393;-79
2023/01/18 07:53:31;;;;;;;34.05;13.95;;;-2.40;99.90;;;;;;5089262;28;20049;-79
2023/01/18 07:56:05;;;;;;;33.95;13.75;;;-2.40;99.90;;;;;;5055951;28;20064;-79
2023/01/18 07:58:32;;;;;;;39.85;14.73;;;-2.40;99.90;;;;;;5055460;28;20045;-78
2023/01/18 08:01:08;;;;;;;43.95;16.20;;;-2.40;99.90;;;;;;5056329;28;20045;-79
2023/01/18 08:03:35;;;;;;;37.22;14.70;;;-2.40;99.90;;;;;;5055150;28;20397;-80
2023/01/18 08:06:02;;;;;;;42.03;16.25;;;-2.40;99.90;;;;;;5055413;28;20051;-78
2023/01/18 08:08:28;;;;;;;38.05;14.60;;;-2.30;99.90;;;;;;5054565;28;20052;-78
2023/01/18 08:10:55;;;;;;;44.42;16.25;;;-2.30;99.90;;;;;;5054957;28;20056;-80
2023/01/18 08:13:23;;;;;;;40.58;15.70;;;-2.30;99.90;;;;;;5054701;28;20080;-77
2023/01/18 08:15:48;;;;;;;39.75;14.73;;;-2.30;99.90;;;;;;5055341;28;20139;-79
2023/01/18 08:18:14;;;;;;;37.03;14.23;;;-2.30;99.90;;;;;;5089001;28;20045;-80
2023/01/18 08:20:44;;;;;;;42.42;17.63;;;-2.30;99.90;;;;;;5037562;28;20045;-79
2023/01/18 08:23:10;;;;;;;41.10;15.60;;;-2.20;99.90;;;;;;5054280;28;20052;-78
2023/01/18 08:25:36;;;;;;;44.78;15.90;;;-2.20;99.90;;;;;;5038161;28;20044;-79
2023/01/18 08:28:02;;;;;;;40.25;16.58;;;-2.20;99.90;;;;;;5038539;28;20064;-78
2023/01/18 08:30:32;;;;;;;38.08;16.23;;;-2.10;99.90;;;;;;5038519;28;20041;-78
2023/01/18 08:32:59;;;;;;;44.08;16.42;;;-2.20;99.90;;;;;;5056928;28;20536;-78
2023/01/18 08:35:38;;;;;;;41.70;15.88;;;-2.20;99.90;;;;;;5057420;28;20354;-78
2023/01/18 08:38:03;;;;;;;44.17;16.73;;;-2.10;99.90;;;;;;5041807;28;20055;-78
2023/01/18 08:40:29;;;;;;;40.38;15.20;;;-2.00;99.90;;;;;;5073520;28;20033;-77
2023/01/18 08:42:57;;;;;;;41.83;15.73;;;-2.00;99.90;;;;;;5092979;28;20428;-77
2023/01/18 08:45:23;;;;;;;48.38;17.40;;;-2.00;99.90;;;;;;5061556;28;20051;-79
2023/01/18 08:48:04;;;;;;;49.83;19.73;;;-1.90;99.90;;;;;;5061950;28;20448;-78
2023/01/18 08:50:31;;;;;;;56.13;22.30;;;-1.90;99.90;;;;;;5060944;28;20100;-77
2023/01/18 08:52:58;;;;;;;55.10;20.10;;;-1.80;99.90;;;;;;5041137;28;20049;-78
2023/01/18 08:55:25;;;;;;;48.67;19.55;;;-1.70;99.90;;;;;;5055631;28;20049;-80
2023/01/18 08:57:56;;;;;;;42.15;17.50;;;-1.70;99.90;;;;;;5020890;28;20419;-80
2023/01/18 09:00:23;;;;;;;45.28;17.25;;;-1.70;99.90;;;;;;5035961;28;20037;-78
2023/01/18 09:02:49;;;;;;;38.97;16.80;;;-1.70;99.90;;;;;;5055283;28;20044;-80
2023/01/18 09:05:15;;;;;;;40.58;16.63;;;-1.60;99.90;;;;;;5054985;28;20052;-78
2023/01/18 09:07:43;;;;;;;38.78;16.98;;;-1.50;99.90;;;;;;5037994;28;20051;-78
2023/01/18 09:10:10;;;;;;;47.28;18.25;;;-1.50;99.90;;;;;;5054101;28;20063;-79
2023/01/18 09:12:35;;;;;;;45.63;19.87;;;-1.40;99.90;;;;;;5054777;28;20041;-77
2023/01/18 09:15:01;;;;;;;44.70;16.95;;;-1.30;99.90;;;;;;5037855;28;20341;-78
2023/01/18 09:17:27;;;;;;;42.30;17.15;;;-1.20;99.90;;;;;;5036668;28;20081;-78
2023/01/18 09:19:53;;;;;;;37.50;16.73;;;-1.20;99.90;;;;;;5036682;28;20120;-78
2023/01/18 09:22:19;;;;;;;42.67;16.63;;;-1.10;99.90;;;;;;5055109;28;20486;-77
2023/01/18 09:24:45;;;;;;;44.88;17.95;;;-1.00;99.90;;;;;;5053584;28;20098;-78
2023/01/18 09:27:12;;;;;;;45.08;16.60;;;-1.00;99.90;;;;;;5053667;28;20044;-79
2023/01/18 09:29:38;;;;;;;44.05;17.20;;;-0.90;99.90;;;;;;5054489;28;20053;-78
2023/01/18 09:32:06;;;;;;;42.13;17.35;;;-0.80;99.90;;;;;;5053154;28;20106;-79
2023/01/18 09:34:33;;;;;;;44.70;19.35;;;-0.80;99.90;;;;;;5054092;28;20155;-78
2023/01/18 09:37:00;;;;;;;42.92;17.80;;;-0.70;99.90;;;;;;5036739;28;20131;-80
2023/01/18 09:39:26;;;;;;;38.85;15.98;;;-0.70;99.90;;;;;;5054607;28;20096;-78
2023/01/18 09:41:56;;;;;;;37.45;16.75;;;-0.70;99.90;;;;;;5070283;28;20094;-78
2023/01/18 09:44:30;;;;;;;40.33;15.90;;;-0.60;99.90;;;;;;5069746;28;20088;-79
2023/01/18 09:47:01;;;;;;;40.80;16.20;;;-0.60;99.90;;;;;;5052629;28;20040;-78
2023/01/18 09:49:50;;;;;;;41.00;16.55;;;-0.50;99.90;;;;;;5069698;28;20354;-79
2023/01/18 09:52:22;;;;;;;42.85;16.48;;;-0.50;99.90;;;;;;5054143;28;20056;-78
2023/01/18 09:55:01;;;;;;;39.97;16.80;;;-0.40;99.90;;;;;;5052749;28;20045;-78
2023/01/18 09:57:45;;;;;;;41.13;16.85;;;-0.30;99.90;;;;;;5053411;28;20053;-79
2023/01/18 10:00:19;;;;;;;44.70;18.10;;;-0.20;99.90;;;;;;5053098;28;20041;-79
2023/01/18 10:02:47;;;;;;;39.53;16.40;;;0.00;99.90;;;;;;5054033;28;20087;-79
2023/01/18 10:05:20;;;;;;;40.50;15.90;;;0.00;99.90;;;;;;5052782;28;20056;-79
2023/01/18 10:08:10;;;;;;;41.45;16.92;;;0.10;99.90;;;;;;5054404;28;20424;-79
2023/01/18 10:10:38;;;;;;;40.47;16.55;;;0.10;99.90;;;;;;5053948;28;20098;-82
2023/01/18 10:13:50;;;;;;;39.45;17.08;;;0.20;99.90;;;;;;5054556;28;20191;-79
2023/01/18 10:16:17;;;;;;;41.67;17.20;;;0.30;99.90;;;;;;5017574;28;20136;-79
2023/01/18 10:18:47;;;;;;;42.78;15.38;;;0.40;99.90;;;;;;5086403;28;20128;-78
2023/01/18 10:21:40;;;;;;;36.65;14.85;;;0.30;99.90;;;;;;5054523;28;20481;-80
2023/01/18 10:24:27;;;;;;;37.10;14.88;;;0.40;99.90;;;;;;5054128;28;20067;-80
2023/01/18 10:26:59;;;;;;;;;;;0.50;99.90;;;;;;5087333;28;20197;-79
2023/01/18 10:29:25;;;;;;;38.05;16.00;;;0.60;99.90;;;;;;5069486;28;20384;-79
2023/01/18 10:32:01;;;;;;;37.17;13.55;;;0.70;99.90;;;;;;5036012;28;20045;-79
2023/01/18 10:34:33;;;;;;;39.70;14.70;;;0.60;99.90;;;;;;5052348;28;20044;-79
2023/01/18 10:37:26;;;;;;;35.75;14.23;;;0.70;99.90;;;;;;5035736;28;20057;-79
2023/01/18 10:40:02;;;;;;;37.53;14.07;;;0.70;99.90;;;;;;5024902;28;20052;-79
2023/01/18 10:42:47;;;;;;;33.75;13.15;;;0.80;99.90;;;;;;5054117;28;20461;-80
2023/01/18 10:45:22;;;;;;;38.47;14.73;;;0.80;99.90;;;;;;5053307;28;20049;-79
2023/01/18 10:47:52;;;;;;;41.90;15.68;;;0.80;99.90;;;;;;5036430;28;20128;-78
2023/01/18 10:50:21;;;;;;;36.50;13.30;;;0.80;99.90;;;;;;5053272;28;20045;-79
2023/01/18 10:52:48;;;;;;;36.00;14.73;;;0.70;99.90;;;;;;5053329;28;20052;-78
2023/01/18 10:55:18;;;;;;;44.10;15.95;;;0.80;99.90;;;;;;5052671;28;20045;-79
2023/01/18 10:57:50;;;;;;;41.50;14.38;;;0.90;99.90;;;;;;5052050;28;20045;-76
2023/01/18 11:00:31;;;;;;;38.80;15.32;;;1.00;99.90;;;;;;5053173;28;20059;-78
2023/01/18 11:02:58;;;;;;;36.85;12.30;;;1.00;99.90;;;;;;5052167;28;20045;-78
2023/01/18 11:05:32;;;;;;;34.55;12.77;;;1.10;99.90;;;;;;5036154;28;20088;-80
2023/01/18 11:08:24;;;;;;;41.70;13.75;;;1.20;99.90;;;;;;5052777;28;20049;-78
2023/01/18 11:11:16;;;;;;;35.67;12.63;;;1.20;99.90;;;;;;5052960;28;20049;-75
2023/01/18 11:13:43;;;;;;;34.33;13.57;;;1.20;99.90;;;;;;5069006;28;20154;-79
2023/01/18 11:16:22;;;;;;;34.67;13.13;;;1.60;99.90;;;;;;5052795;28;20420;-78
2023/01/18 11:19:15;;;;;;;38.03;12.55;;;1.60;99.90;;;;;;5035344;28;20101;-76
2023/01/18 11:21:44;;;;;;;32.72;13.23;;;1.80;99.90;;;;;;5035358;28;20057;-77
2023/01/18 11:24:27;;;;;;;37.70;13.80;;;1.80;99.90;;;;;;5054620;28;20045;-78
2023/01/18 11:26:55;;;;;;;35.67;13.02;;;1.90;99.90;;;;;;5056964;28;20503;-79
2023/01/18 11:29:24;;;;;;;28.88;11.82;;;1.90;99.90;;;;;;5055248;28;20052;-79
2023/01/18 11:31:51;;;;;;;34.03;12.68;;;1.90;99.90;;;;;;5089536;28;20045;-76
2023/01/18 11:34:39;;;;;;;37.65;13.57;;;2.00;99.90;;;;;;5056536;28;20157;-78
2023/01/18 11:37:39;;;;;;;36.25;12.13;;;2.10;99.90;;;;;;5089217;28;20494;-78
2023/01/18 11:40:28;;;;;;;34.65;12.93;;;2.20;99.90;;;;;;5056462;28;20045;-79
2023/01/18 11:43:24;;;;;;;33.90;11.45;;;2.30;99.90;;;;;;5058042;28;20059;-75
2023/01/18 11:46:02;;;;;;;43.38;13.82;;;2.20;99.90;;;;;;5055869;28;20442;-78
2023/01/18 11:48:38;;;;;;;;;;;2.30;99.90;;;;;;5056835;28;20041;-79
2023/01/18 11:51:43;;;;;;;36.20;12.43;;;2.30;99.90;;;;;;5055267;28;19978;-78
2023/01/18 11:54:17;;;;;;;32.35;12.45;;;2.40;99.90;;;;;;5056434;28;20127;-76
2023/01/18 11:56:51;;;;;;;32.70;12.95;;;2.40;99.90;;;;;;5056018;28;20111;-80
2023/01/18 11:59:29;;;;;;;34.90;11.75;;;2.50;99.90;;;;;;5056227;28;20053;-78
2023/01/18 12:02:22;;;;;;;37.50;12.73;;;2.60;99.90;;;;;;5056581;28;20044;-75
2023/01/18 12:05:21;;;;;;;27.63;11.30;;;2.60;99.90;;;;;;5056227;28;20040;-79
2023/01/18 12:08:27;;;;;;;32.63;14.07;;;2.70;99.90;;;;;;5088606;28;20088;-79
2023/01/18 12:11:09;;;;;;;36.38;12.05;;;2.80;99.90;;;;;;5025977;28;20064;-80
2023/01/18 12:13:47;;;;;;;28.27;8.98;;;2.80;99.90;;;;;;5055880;28;20068;-79
2023/01/18 12:16:29;;;;;;;31.42;12.63;;;2.80;99.90;;;;;;5055488;28;20052;-78
2023/01/18 12:19:32;;;;;;;31.10;11.18;;;2.80;99.90;;;;;;5057011;28;20392;-79
2023/01/18 12:22:17;;;;;;;28.55;8.82;;;2.90;99.90;;;;;;5056439;28;20064;-77
2023/01/18 12:25:10;;;;;;;35.88;12.05;;;2.90;99.90;;;;;;5056523;28;20052;-80
2023/01/18 12:27:51;;;;;;;34.72;12.25;;;2.90;99.90;;;;;;5056380;28;20045;-78
2023/01/18 12:30:54;;;;;;;28.95;11.23;;;3.00;99.90;;;;;;5055157;28;20045;-79
2023/01/18 12:33:30;;;;;;;33.58;11.20;;;3.00;99.90;;;;;;5058728;28;20524;-81
2023/01/18 12:36:14;;;;;;;30.65;11.98;;;3.10;99.90;;;;;;5059038;28;20048;-81
2023/01/18 12:38:54;;;;;;;34.72;12.63;;;3.10;99.90;;;;;;5059936;28;20372;-81
2023/01/18 12:42:02;;;;;;;33.33;11.90;;;3.10;99.90;;;;;;5058002;28;20048;-83
2023/01/18 12:44:40;;;;;;;29.55;11.20;;;3.10;99.90;;;;;;5005104;28;20506;-81
2023/01/18 12:47:33;;;;;;;35.45;11.15;;;3.20;99.90;;;;;;5060981;28;20055;-81
2023/01/18 12:50:20;;;;;;;34.25;11.60;;;3.10;99.90;;;;;;5063900;28;20055;-79
2023/01/18 12:52:48;;;;;;;;;;;3.20;99.90;;;;;;5069213;28;20463;-80
2023/01/18 12:55:20;;;;;;;36.78;10.73;;;3.20;99.90;;;;;;5070314;28;19920;-79
2023/01/18 12:57:49;;;;;;;27.55;9.43;;;3.10;99.90;;;;;;5069120;28;20128;-79
2023/01/18 13:00:27;;;;;;;36.08;11.73;;;3.20;99.90;;;;;;5068836;28;20103;-79
2023/01/18 13:02:56;;;;;;;29.42;10.18;;;3.20;99.90;;;;;;5066201;28;20103;-79
2023/01/18 13:05:51;;;;;;;32.42;11.25;;;3.30;99.90;;;;;;5064229;28;20052;-80
2023/01/18 13:08:22;;;;;;;35.45;10.68;;;3.30;99.90;;;;;;5059225;28;20088;-79
2023/01/18 13:10:49;;;;;;;32.47;10.57;;;3.40;99.90;;;;;;5040860;28;20436;-78
2023/01/18 13:13:24;;;;;;;28.77;11.13;;;3.40;99.90;;;;;;5057114;28;20511;-79
2023/01/18 13:16:30;;;;;;;34.40;9.48;;;3.50;99.90;;;;;;5024536;28;20462;-79
2023/01/18 13:19:02;;;;;;;29.48;10.50;;;3.50;99.90;;;;;;5056593;28;20053;-80
2023/01/18 13:22:02;;;;;;;30.90;9.02;;;3.50;99.90;;;;;;5055759;28;20566;-80
2023/01/18 13:25:07;;;;;;;29.90;10.25;;;3.60;99.90;;;;;;5020029;28;20401;-80
2023/01/18 13:27:34;;;;;;;33.33;9.77;;;3.60;99.90;;;;;;5062175;28;20444;-80